Terminal Aerodrome Forecast
Issued by NWS Charleston, WV

Current Version | Previous Version | Text Only | Print | Product List | Glossary Off
Versions: 1 2 3 4 5 6 7 8 9 10 11 12 13 14 15 16 17 18

364
FTUS41 KRLX 060912 AAA
TAFEKN
TAF AMD
KEKN 060912Z 0609/0706 00000KT P6SM FEW140=

USA.gov is the U.S. government's official web portal to all federal, state and local government web resources and services.